createdAt,value
2024-02-26T00:02:25.893Z,7.90
2024-02-26T00:05:12.752Z,8.20
2024-02-26T00:08:01.832Z,8.55
2024-02-26T00:10:50.296Z,7.88
2024-02-26T00:13:38.065Z,8.95
2024-02-26T00:16:25.295Z,8.00
2024-02-26T00:19:12.688Z,7.95
2024-02-26T00:21:59.719Z,7.95
2024-02-26T00:24:46.556Z,7.95
2024-02-26T00:27:33.428Z,7.55
2024-02-26T00:30:20.383Z,7.28
2024-02-26T00:33:07.365Z,7.25
2024-02-26T00:35:54.313Z,6.82
2024-02-26T00:38:41.838Z,6.45
2024-02-26T00:41:28.749Z,6.78
2024-02-26T00:44:15.748Z,6.57
2024-02-26T00:47:03.362Z,6.10
2024-02-26T00:49:50.302Z,6.28
2024-02-26T00:52:37.278Z,5.65
2024-02-26T00:55:24.222Z,5.50
2024-02-26T00:58:11.500Z,5.28
2024-02-26T01:00:58.457Z,5.35
2024-02-26T01:03:45.490Z,5.70
2024-02-26T01:06:32.585Z,5.30
2024-02-26T01:09:19.912Z,4.75
2024-02-26T01:12:06.981Z,4.80
2024-02-26T01:14:53.880Z,4.80
2024-02-26T01:17:41.101Z,4.53
2024-02-26T01:20:28.096Z,4.90
2024-02-26T01:23:14.995Z,5.22
2024-02-26T01:26:01.967Z,4.85
2024-02-26T01:28:49.294Z,4.72
2024-02-26T01:31:36.142Z,4.57
2024-02-26T01:34:23.128Z,5.28
2024-02-26T01:37:10.036Z,4.40
2024-02-26T01:39:57.000Z,4.75
2024-02-26T01:42:43.882Z,4.18
2024-02-26T01:45:31.009Z,4.63
2024-02-26T01:48:17.930Z,4.10
2024-02-26T01:51:04.999Z,4.30
2024-02-26T01:53:52.560Z,4.22
2024-02-26T01:56:40.013Z,4.13
2024-02-26T01:59:27.045Z,4.30
2024-02-26T02:02:14.333Z,4.10
2024-02-26T02:05:01.989Z,3.95
2024-02-26T02:07:50.069Z,4.15
2024-02-26T02:10:38.226Z,4.27
2024-02-26T02:13:25.166Z,3.97
2024-02-26T02:16:12.114Z,3.97
2024-02-26T02:19:00.106Z,4.32
2024-02-26T02:21:46.941Z,3.85
2024-02-26T02:24:33.820Z,3.85
2024-02-26T02:27:21.361Z,3.58
2024-02-26T02:30:09.195Z,3.80
2024-02-26T02:32:56.708Z,3.60
2024-02-26T02:35:43.790Z,3.60
2024-02-26T02:38:31.544Z,3.55
2024-02-26T02:41:18.740Z,3.35
2024-02-26T02:44:05.563Z,3.40
2024-02-26T02:46:54.353Z,3.17
2024-02-26T02:49:41.218Z,3.50
2024-02-26T02:52:28.067Z,3.50
2024-02-26T02:55:14.942Z,3.60
2024-02-26T02:58:01.976Z,3.60
2024-02-26T03:00:48.971Z,3.55
2024-02-26T03:03:37.748Z,3.67
2024-02-26T03:06:25.989Z,4.07
2024-02-26T03:09:13.060Z,4.30
2024-02-26T03:11:59.970Z,4.07
2024-02-26T03:14:46.893Z,3.50
2024-02-26T03:17:34.093Z,3.55
2024-02-26T03:20:21.107Z,3.60
2024-02-26T03:23:10.896Z,3.65
2024-02-26T03:25:57.743Z,4.10
2024-02-26T03:28:44.609Z,3.67
2024-02-26T03:31:31.850Z,3.60
2024-02-26T03:34:20.961Z,4.57
2024-02-26T03:42:45.435Z,3.78
2024-02-26T03:45:32.362Z,3.80
2024-02-26T03:48:19.470Z,3.60
2024-02-26T03:51:06.381Z,3.90
2024-02-26T03:53:53.246Z,3.33
2024-02-26T03:56:40.087Z,3.75
2024-02-26T03:59:27.656Z,3.40
2024-02-26T04:02:14.606Z,3.78
2024-02-26T04:05:01.670Z,3.58
2024-02-26T04:07:48.622Z,3.60
2024-02-26T04:10:41.689Z,3.58
2024-02-26T04:13:28.654Z,3.92
2024-02-26T04:16:15.972Z,4.10
2024-02-26T04:19:03.079Z,3.42
2024-02-26T04:21:49.993Z,3.42
2024-02-26T04:24:37.444Z,4.00
2024-02-26T04:27:24.345Z,3.83
2024-02-26T04:30:11.640Z,3.67
2024-02-26T04:32:58.695Z,3.42
2024-02-26T04:35:45.613Z,3.83
2024-02-26T04:38:32.474Z,3.72
2024-02-26T04:41:19.317Z,3.65
2024-02-26T04:44:06.557Z,3.65
2024-02-26T04:46:53.435Z,4.00
2024-02-26T04:49:40.402Z,3.60
2024-02-26T04:52:27.228Z,3.55
2024-02-26T04:55:14.178Z,3.58
2024-02-26T04:58:01.021Z,3.97
2024-02-26T05:00:47.983Z,4.13
2024-02-26T05:03:36.982Z,4.13
2024-02-26T05:09:11.002Z,4.15
2024-02-26T05:11:57.844Z,4.40
2024-02-26T05:14:44.739Z,4.22
2024-02-26T05:17:31.626Z,4.68
2024-02-26T05:20:18.535Z,4.20
2024-02-26T05:23:05.460Z,4.63
2024-02-26T05:25:52.294Z,4.50
2024-02-26T05:28:40.545Z,4.72
2024-02-26T05:31:27.766Z,4.20
2024-02-26T05:34:14.760Z,4.30
2024-02-26T05:37:01.668Z,4.22
2024-02-26T05:39:48.583Z,4.30
2024-02-26T05:42:35.553Z,4.18
2024-02-26T05:45:23.073Z,4.70
2024-02-26T05:48:10.223Z,4.35
2024-02-26T05:50:57.226Z,4.22
2024-02-26T05:53:44.162Z,4.13
2024-02-26T05:56:31.062Z,4.70
2024-02-26T05:59:17.943Z,3.80
2024-02-26T06:02:04.976Z,4.50
2024-02-26T06:04:51.988Z,4.60
2024-02-26T06:07:38.871Z,4.65
2024-02-26T06:10:26.349Z,4.40
2024-02-26T06:13:13.156Z,4.43
2024-02-26T06:15:59.977Z,4.53
2024-02-26T06:18:47.000Z,4.85
2024-02-26T06:21:34.630Z,5.25
2024-02-26T06:24:23.413Z,5.20
2024-02-26T06:27:10.311Z,4.82
2024-02-26T06:29:58.137Z,5.22
2024-02-26T06:32:45.293Z,5.72
2024-02-26T06:35:32.732Z,5.72
2024-02-26T06:38:20.332Z,6.50
2024-02-26T06:41:07.243Z,5.72
2024-02-26T06:43:57.288Z,5.43
2024-02-26T06:46:44.116Z,5.53
2024-02-26T06:49:31.363Z,6.40
2024-02-26T06:52:18.377Z,5.53
2024-02-26T06:55:06.240Z,6.00
2024-02-26T06:57:53.086Z,6.15
2024-02-26T07:00:39.940Z,5.80
2024-02-26T07:03:27.002Z,6.10
2024-02-26T07:06:15.157Z,5.32
2024-02-26T07:09:02.161Z,5.78
2024-02-26T07:11:49.175Z,5.75
2024-02-26T07:14:36.285Z,5.95
2024-02-26T07:17:23.219Z,6.10
2024-02-26T07:20:10.908Z,5.97
2024-02-26T07:22:58.366Z,6.03
2024-02-26T07:25:48.485Z,6.40
2024-02-26T07:28:35.628Z,5.75
2024-02-26T07:31:22.464Z,5.38
2024-02-26T07:34:10.045Z,5.35
2024-02-26T07:36:57.528Z,6.05
2024-02-26T07:39:44.539Z,5.50
2024-02-26T07:42:31.483Z,5.22
2024-02-26T07:45:21.035Z,5.93
2024-02-26T07:48:08.327Z,5.63
2024-02-26T07:50:55.423Z,6.03
2024-02-26T07:53:42.501Z,5.47
2024-02-26T07:56:29.428Z,5.60
2024-02-26T07:59:16.260Z,6.30
2024-02-26T08:02:04.248Z,5.88
2024-02-26T08:04:51.311Z,5.78
2024-02-26T08:07:39.792Z,6.10
2024-02-26T08:10:29.256Z,5.80
2024-02-26T08:13:16.801Z,6.38
2024-02-26T08:16:03.810Z,5.72
2024-02-26T08:18:50.878Z,6.07
2024-02-26T08:21:37.966Z,5.80
2024-02-26T08:24:24.928Z,6.57
2024-02-26T08:27:12.014Z,6.65
2024-02-26T08:29:59.137Z,6.68
2024-02-26T08:32:52.096Z,5.93
2024-02-26T08:35:40.031Z,6.78
2024-02-26T08:38:26.836Z,6.85
2024-02-26T08:41:14.347Z,6.18
2024-02-26T08:44:01.192Z,6.55
2024-02-26T08:46:48.078Z,6.72
2024-02-26T08:49:35.091Z,6.65
2024-02-26T08:52:22.889Z,6.40
2024-02-26T08:55:10.111Z,6.47
2024-02-26T08:57:57.027Z,6.50
2024-02-26T09:00:43.940Z,6.32
2024-02-26T09:03:30.843Z,6.20
2024-02-26T09:06:17.887Z,6.72
2024-02-26T09:09:04.851Z,7.15
2024-02-26T09:11:53.258Z,6.47
2024-02-26T09:14:40.334Z,7.00
2024-02-26T09:17:27.293Z,6.38
2024-02-26T09:20:16.106Z,6.70
2024-02-26T09:23:04.015Z,7.00
2024-02-26T09:25:50.882Z,6.43
2024-02-26T09:28:38.697Z,6.40
2024-02-26T09:31:25.746Z,6.47
2024-02-26T09:34:12.745Z,7.50
2024-02-26T09:37:05.284Z,6.60
2024-02-26T09:39:59.569Z,7.20
2024-02-26T09:42:47.109Z,6.78
2024-02-26T09:45:34.517Z,6.90
2024-02-26T09:48:21.676Z,7.10
2024-02-26T09:51:08.770Z,7.00
2024-02-26T09:53:56.221Z,7.38
2024-02-26T09:56:53.246Z,7.15
2024-02-26T09:59:48.370Z,6.32
2024-02-26T10:02:37.577Z,6.80
2024-02-26T10:05:25.740Z,6.72
2024-02-26T10:08:13.684Z,6.80
2024-02-26T10:11:01.337Z,6.47
2024-02-26T10:13:48.262Z,6.65
2024-02-26T10:16:36.461Z,6.25
2024-02-26T10:19:35.930Z,6.30
2024-02-26T10:22:24.632Z,6.65
2024-02-26T10:25:11.660Z,6.28
2024-02-26T10:28:05.828Z,6.45
2024-02-26T10:30:53.730Z,6.30
2024-02-26T10:33:43.457Z,6.38
2024-02-26T10:36:43.870Z,6.72
2024-02-26T10:39:37.948Z,6.10
2024-02-26T10:42:27.203Z,6.55
2024-02-26T10:48:01.841Z,5.75
2024-02-26T10:50:49.925Z,6.25
2024-02-26T10:53:37.580Z,6.53
2024-02-26T10:56:28.738Z,5.82
2024-02-26T10:59:21.863Z,6.60
2024-02-26T11:02:09.830Z,5.90
2024-02-26T11:04:56.947Z,6.38
2024-02-26T11:07:44.106Z,6.50
2024-02-26T11:10:31.291Z,6.28
2024-02-26T11:13:19.730Z,6.32
2024-02-26T11:16:08.352Z,5.82
2024-02-26T11:18:57.012Z,5.88
2024-02-26T11:21:44.434Z,6.18
2024-02-26T11:24:31.864Z,5.95
2024-02-26T11:27:20.256Z,6.28
2024-02-26T11:30:10.615Z,6.27
2024-02-26T11:32:58.033Z,5.93
2024-02-26T11:35:46.738Z,5.53
2024-02-26T11:38:34.227Z,5.85
2024-02-26T11:41:21.212Z,5.65
2024-02-26T11:44:08.429Z,5.45
2024-02-26T11:46:55.428Z,5.90
2024-02-26T11:49:42.795Z,5.10
2024-02-26T11:52:29.767Z,5.55
2024-02-26T11:55:33.044Z,5.80
2024-02-26T11:58:19.848Z,5.07
2024-02-26T12:01:06.732Z,5.45
2024-02-26T12:03:56.044Z,5.38
2024-02-26T12:09:37.417Z,4.80
2024-02-26T12:12:27.868Z,5.13
2024-02-26T12:15:16.290Z,5.25
2024-02-26T12:18:05.737Z,4.70
2024-02-26T12:21:03.700Z,4.63
2024-02-26T12:23:50.744Z,5.13
2024-02-26T12:26:37.643Z,4.32
2024-02-26T12:29:24.457Z,4.35
2024-02-26T12:32:11.984Z,4.38
2024-02-26T12:34:59.704Z,4.72
2024-02-26T12:37:47.527Z,4.07
2024-02-26T12:40:34.460Z,4.00
2024-02-26T12:43:21.316Z,4.60
2024-02-26T12:46:08.233Z,4.43
2024-02-26T12:49:01.056Z,3.97
2024-02-26T12:51:48.305Z,3.97
2024-02-26T12:54:42.558Z,3.78
2024-02-26T12:57:31.648Z,4.10
2024-02-26T13:00:23.112Z,4.18
2024-02-26T13:03:10.703Z,4.13
2024-02-26T13:05:57.863Z,4.00
2024-02-26T13:08:45.016Z,4.03
2024-02-26T13:11:32.908Z,4.15
2024-02-26T13:14:21.409Z,3.85
2024-02-26T13:17:08.572Z,4.18
2024-02-26T13:19:55.689Z,3.80
2024-02-26T13:22:43.239Z,3.90
2024-02-26T13:25:30.178Z,3.78
2024-02-26T13:28:18.911Z,4.25
2024-02-26T13:31:08.723Z,4.05
2024-02-26T13:33:56.889Z,3.72
2024-02-26T13:36:43.861Z,3.27
2024-02-26T13:39:31.625Z,3.47
2024-02-26T13:42:18.687Z,3.70
2024-02-26T13:45:09.849Z,3.63
2024-02-26T13:48:03.007Z,3.20
2024-02-26T13:50:50.412Z,3.80
2024-02-26T13:53:37.397Z,3.50
2024-02-26T13:56:24.424Z,3.42
2024-02-26T13:59:11.357Z,4.00
2024-02-26T14:01:58.193Z,3.17
2024-02-26T14:04:45.849Z,3.40
2024-02-26T14:07:33.525Z,3.40
2024-02-26T14:10:20.914Z,3.42
2024-02-26T14:13:07.760Z,3.50
2024-02-26T14:15:54.727Z,3.50
2024-02-26T14:18:42.102Z,3.35
2024-02-26T14:21:29.131Z,3.35
2024-02-26T14:24:16.903Z,3.60
2024-02-26T14:27:04.792Z,3.40
2024-02-26T14:29:51.792Z,3.67
2024-02-26T14:32:39.197Z,3.40
2024-02-26T14:35:27.405Z,3.30
2024-02-26T14:38:14.300Z,3.00
2024-02-26T14:41:01.108Z,3.28
2024-02-26T14:43:48.113Z,3.15
2024-02-26T14:46:35.078Z,3.20
2024-02-26T14:49:22.010Z,3.58
2024-02-26T14:52:08.961Z,3.17
2024-02-26T14:54:55.862Z,3.47
2024-02-26T14:57:42.762Z,3.40
2024-02-26T15:00:29.718Z,3.35
2024-02-26T15:03:18.479Z,3.60
2024-02-26T15:06:06.544Z,3.10
2024-02-26T15:08:53.857Z,3.30
2024-02-26T15:11:41.056Z,3.38
2024-02-26T15:14:28.086Z,3.35
2024-02-26T15:17:15.013Z,3.55
2024-02-26T15:20:02.830Z,3.67
2024-02-26T15:22:49.794Z,3.40
2024-02-26T15:25:36.686Z,3.72
2024-02-26T15:28:23.542Z,3.70
2024-02-26T15:31:14.170Z,5.18
2024-02-26T15:34:02.040Z,5.40
2024-02-26T15:36:48.981Z,5.45
2024-02-26T15:39:37.608Z,5.32
2024-02-26T15:42:26.331Z,4.82
2024-02-26T15:45:13.410Z,4.95
2024-02-26T15:48:01.014Z,4.75
2024-02-26T15:50:48.412Z,4.25
2024-02-26T15:53:35.716Z,4.32
2024-02-26T15:56:25.360Z,4.32
2024-02-26T15:59:12.756Z,5.70
2024-02-26T16:01:59.652Z,6.05
2024-02-26T16:04:46.708Z,5.70
2024-02-26T16:07:40.667Z,6.15
2024-02-26T16:10:31.349Z,5.45
2024-02-26T16:13:20.937Z,4.90
2024-02-26T16:16:18.246Z,4.68
2024-02-26T16:19:11.182Z,4.40
2024-02-26T16:21:58.061Z,4.35
2024-02-26T16:24:44.891Z,4.28
2024-02-26T16:27:31.843Z,4.20
2024-02-26T16:30:18.798Z,4.38
2024-02-26T16:33:05.898Z,4.93
2024-02-26T16:35:52.849Z,4.20
2024-02-26T16:38:40.676Z,4.30
2024-02-26T16:41:27.499Z,4.05
2024-02-26T16:44:14.489Z,4.38
2024-02-26T16:47:02.393Z,4.32
2024-02-26T16:49:49.587Z,4.57
2024-02-26T16:52:36.442Z,4.78
2024-02-26T16:55:25.438Z,4.80
2024-02-26T16:58:12.283Z,4.57
2024-02-26T17:00:59.228Z,4.30
2024-02-26T17:03:46.180Z,4.32
2024-02-26T17:06:33.091Z,4.22
2024-02-26T17:09:20.930Z,4.38
2024-02-26T17:12:10.698Z,4.43
2024-02-26T17:14:59.333Z,4.55
2024-02-26T17:17:46.369Z,4.68
2024-02-26T17:20:33.252Z,5.05
2024-02-26T17:23:20.089Z,5.05
2024-02-26T17:26:09.850Z,5.00
2024-02-26T17:28:57.395Z,5.07
2024-02-26T17:31:44.704Z,5.18
2024-02-26T17:34:31.784Z,5.35
2024-02-26T17:37:18.738Z,5.15
2024-02-26T17:40:07.578Z,5.43
2024-02-26T17:42:55.617Z,6.55
2024-02-26T17:45:42.509Z,7.85
2024-02-26T17:48:31.079Z,6.22
2024-02-26T17:51:18.179Z,5.90
2024-02-26T17:54:05.134Z,6.28
2024-02-26T17:56:53.141Z,6.30
2024-02-26T17:59:40.048Z,6.80
2024-02-26T18:02:26.931Z,6.43
2024-02-26T18:05:13.933Z,6.28
2024-02-26T18:08:00.814Z,6.22
2024-02-26T18:10:48.512Z,6.40
2024-02-26T18:13:36.987Z,6.43
2024-02-26T18:16:23.824Z,6.18
2024-02-26T18:19:10.824Z,6.22
2024-02-26T18:21:59.913Z,5.97
2024-02-26T18:24:46.793Z,6.25
2024-02-26T18:27:36.370Z,5.70
2024-02-26T18:30:23.470Z,5.90
2024-02-26T18:33:10.488Z,6.03
2024-02-26T18:35:57.671Z,5.50
2024-02-26T18:38:44.936Z,5.80
2024-02-26T18:41:31.964Z,5.97
2024-02-26T18:44:18.828Z,5.05
2024-02-26T18:47:05.805Z,5.05
2024-02-26T18:49:52.683Z,5.43
2024-02-26T18:52:40.938Z,5.68
2024-02-26T18:55:28.004Z,5.20
2024-02-26T18:58:14.944Z,5.40
2024-02-26T19:01:01.894Z,5.57
2024-02-26T19:03:48.978Z,4.88
2024-02-26T19:06:37.162Z,5.63
2024-02-26T19:09:24.254Z,5.20
2024-02-26T19:12:11.260Z,4.85
2024-02-26T19:14:58.137Z,5.60
2024-02-26T19:17:45.089Z,5.10
2024-02-26T19:20:32.073Z,6.22
2024-02-26T19:23:19.159Z,5.82
2024-02-26T19:26:06.039Z,5.88
2024-02-26T19:28:52.862Z,5.20
2024-02-26T19:31:39.913Z,5.40
2024-02-26T19:34:27.276Z,5.57
2024-02-26T19:37:14.164Z,5.78
2024-02-26T19:40:01.170Z,6.22
2024-02-26T19:42:48.313Z,5.88
2024-02-26T19:45:35.352Z,6.18
2024-02-26T19:48:22.368Z,6.10
2024-02-26T19:51:09.398Z,6.13
2024-02-26T19:53:56.346Z,5.93
2024-02-26T19:56:44.334Z,6.70
2024-02-26T19:59:31.288Z,6.68
2024-02-26T20:02:18.149Z,7.07
2024-02-26T20:05:05.474Z,6.18
2024-02-26T20:07:52.964Z,6.90
2024-02-26T20:10:40.245Z,6.93
2024-02-26T20:13:29.074Z,6.70
2024-02-26T20:16:15.981Z,6.65
2024-02-26T20:19:02.955Z,6.78
2024-02-26T20:21:49.942Z,6.70
2024-02-26T20:24:38.709Z,7.03
2024-02-26T20:27:25.779Z,7.25
2024-02-26T20:30:12.952Z,7.07
2024-02-26T20:33:00.863Z,7.07
2024-02-26T20:35:47.901Z,7.05
2024-02-26T20:38:34.982Z,7.32
2024-02-26T20:41:25.327Z,6.60
2024-02-26T20:44:12.220Z,7.20
2024-02-26T20:47:00.248Z,7.13
2024-02-26T20:49:47.548Z,6.88
2024-02-26T20:52:34.582Z,7.15
2024-02-26T20:55:21.836Z,7.20
2024-02-26T20:58:09.727Z,7.22
2024-02-26T21:00:57.449Z,7.93
2024-02-26T21:03:44.597Z,6.80
2024-02-26T21:06:32.424Z,6.85
2024-02-26T21:09:19.663Z,7.32
2024-02-26T21:12:07.195Z,7.55
2024-02-26T21:14:54.845Z,7.63
2024-02-26T21:17:41.983Z,7.43
2024-02-26T21:20:32.688Z,7.10
2024-02-26T21:23:19.645Z,7.97
2024-02-26T21:26:08.180Z,7.28
2024-02-26T21:28:55.378Z,7.95
2024-02-26T21:31:42.229Z,7.32
2024-02-26T21:34:29.166Z,7.63
2024-02-26T21:37:16.214Z,7.97
2024-02-26T21:40:03.868Z,7.95
2024-02-26T21:42:50.689Z,7.28
2024-02-26T21:45:38.355Z,7.43
2024-02-26T21:48:26.147Z,7.38
2024-02-26T21:51:14.185Z,7.75
2024-02-26T21:54:01.194Z,7.72
2024-02-26T21:56:48.543Z,8.30
2024-02-26T21:59:35.409Z,8.35
2024-02-26T22:02:22.237Z,8.48
2024-02-26T22:05:09.704Z,8.23
2024-02-26T22:07:56.806Z,8.05
2024-02-26T22:10:46.699Z,8.02
2024-02-26T22:13:33.553Z,8.30
2024-02-26T22:16:21.777Z,8.23
2024-02-26T22:19:12.288Z,7.47
2024-02-26T22:21:59.209Z,8.00
2024-02-26T22:24:46.047Z,8.40
2024-02-26T22:27:33.271Z,8.60
2024-02-26T22:30:20.248Z,8.27
2024-02-26T22:33:07.347Z,8.32
2024-02-26T22:35:54.394Z,8.30
2024-02-26T22:38:41.237Z,8.43
2024-02-26T22:41:28.174Z,8.38
2024-02-26T22:44:15.056Z,8.45
2024-02-26T22:47:02.042Z,8.63
2024-02-26T22:49:49.046Z,8.52
2024-02-26T22:52:35.918Z,9.13
2024-02-26T22:55:25.525Z,8.50
2024-02-26T22:58:12.382Z,9.65
2024-02-26T23:00:59.327Z,8.52
2024-02-26T23:03:46.312Z,8.55
2024-02-26T23:06:33.809Z,9.23
2024-02-26T23:09:21.774Z,9.75
2024-02-26T23:12:08.931Z,9.52
2024-02-26T23:14:55.793Z,9.93
2024-02-26T23:17:43.300Z,9.75
2024-02-26T23:20:30.257Z,8.80
2024-02-26T23:23:17.088Z,9.25
2024-02-26T23:26:04.128Z,9.75
2024-02-26T23:28:51.025Z,9.15
2024-02-26T23:31:37.855Z,10.05
2024-02-26T23:34:24.769Z,9.40
2024-02-26T23:37:11.693Z,10.02
2024-02-26T23:39:58.547Z,9.52
2024-02-26T23:42:45.581Z,9.52
2024-02-26T23:45:32.802Z,10.25
2024-02-26T23:48:20.060Z,10.38
2024-02-26T23:51:07.098Z,9.88
2024-02-26T23:53:54.096Z,10.38
2024-02-26T23:56:41.037Z,10.07
2024-02-26T23:59:28.010Z,10.07
